createdAt,value
2022-10-08T00:03:50.197Z,7.70
2022-10-08T00:08:37.258Z,8.73
2022-10-08T00:13:23.129Z,9.87
2022-10-08T00:18:10.164Z,7.13
2022-10-08T00:22:57.576Z,6.87
2022-10-08T00:27:45.271Z,6.03
2022-10-08T00:32:34.406Z,7.33
2022-10-08T00:37:28.448Z,9.77
2022-10-08T00:42:27.460Z,9.07
2022-10-08T00:47:19.666Z,9.60
2022-10-08T00:52:03.603Z,7.97
2022-10-08T00:56:54.767Z,7.60
2022-10-08T01:01:41.462Z,9.00
2022-10-08T01:06:32.362Z,11.53
2022-10-08T01:11:34.634Z,9.23
2022-10-08T01:16:33.741Z,4.70
2022-10-08T01:21:39.562Z,4.67
2022-10-08T01:27:02.312Z,13.50
2022-10-08T01:32:05.417Z,7.97
2022-10-08T01:36:56.637Z,6.00
2022-10-08T01:41:42.223Z,4.90
2022-10-08T01:46:30.179Z,10.97
2022-10-08T01:51:32.339Z,4.23
2022-10-08T01:56:25.375Z,7.00
2022-10-08T02:01:12.946Z,4.47
2022-10-08T02:05:57.247Z,6.77
2022-10-08T02:10:42.766Z,7.60
2022-10-08T02:15:51.046Z,5.23
2022-10-08T02:20:37.961Z,7.17
2022-10-08T02:25:57.779Z,5.10
2022-10-08T02:30:57.700Z,5.57
2022-10-08T02:36:24.986Z,8.57
2022-10-08T02:41:12.419Z,8.23
2022-10-08T02:46:01.799Z,6.80
2022-10-08T02:50:56.488Z,6.80
2022-10-08T02:55:50.626Z,4.83
2022-10-08T03:01:05.990Z,6.77
2022-10-08T03:05:56.007Z,8.23
2022-10-08T03:10:44.870Z,7.67
2022-10-08T03:15:34.957Z,5.30
2022-10-08T03:20:20.024Z,6.60
2022-10-08T03:25:06.836Z,6.80
2022-10-08T03:29:58.840Z,5.63
2022-10-08T03:34:44.284Z,6.33
2022-10-08T03:39:32.215Z,6.53
2022-10-08T03:44:18.671Z,9.10
2022-10-08T03:49:06.207Z,8.83
2022-10-08T03:53:54.428Z,10.63
2022-10-08T03:58:47.032Z,7.30
2022-10-08T04:04:23.145Z,9.17
2022-10-08T04:09:39.093Z,8.73
2022-10-08T04:14:28.535Z,7.03
2022-10-08T04:19:17.549Z,10.20
2022-10-08T04:24:04.003Z,8.47
2022-10-08T04:28:51.329Z,10.73
2022-10-08T04:33:46.146Z,7.27
2022-10-08T04:38:29.820Z,8.07
2022-10-08T04:43:19.220Z,8.00
2022-10-08T04:48:05.664Z,10.67
2022-10-08T04:52:53.385Z,8.90
2022-10-08T04:57:42.792Z,7.93
2022-10-08T05:02:28.157Z,9.43
2022-10-08T05:07:20.649Z,7.47
2022-10-08T05:12:40.418Z,12.47
2022-10-08T05:18:47.770Z,11.53
2022-10-08T05:24:42.286Z,9.20
2022-10-08T05:29:58.005Z,10.00
2022-10-08T05:40:52.226Z,8.03
2022-10-08T06:43:21.408Z,11.70
2022-10-08T06:57:25.667Z,7.50
2022-10-08T07:02:59.790Z,9.87
2022-10-08T07:08:23.127Z,9.77
2022-10-08T07:19:20.633Z,8.27
2022-10-08T07:25:31.460Z,8.63
2022-10-08T07:31:34.037Z,8.90
2022-10-08T07:36:58.615Z,6.40
2022-10-08T07:42:00.965Z,8.00
2022-10-08T08:59:27.702Z,5.10
2022-10-08T09:32:46.084Z,7.60
2022-10-08T09:38:22.550Z,7.53
2022-10-08T10:02:48.952Z,6.27
2022-10-08T10:08:30.596Z,6.73
2022-10-08T10:33:15.356Z,6.50
2022-10-08T12:00:55.176Z,2.40
2022-10-08T12:06:37.180Z,2.20
2022-10-08T12:11:53.731Z,2.57
2022-10-08T12:17:31.181Z,3.23
2022-10-08T12:23:26.533Z,3.03
2022-10-08T12:34:22.994Z,3.90
2022-10-08T12:39:09.154Z,1.73
2022-10-08T12:44:55.968Z,3.13
2022-10-08T12:55:25.807Z,3.00
2022-10-08T13:00:42.065Z,6.73
2022-10-08T13:05:35.117Z,4.33
2022-10-08T13:10:35.000Z,2.60
2022-10-08T13:16:15.102Z,2.20
2022-10-08T13:22:03.039Z,1.70
2022-10-08T13:27:24.623Z,1.80
2022-10-08T13:32:26.937Z,2.77
2022-10-08T13:37:17.608Z,1.50
2022-10-08T13:42:56.207Z,5.30
2022-10-08T14:28:30.899Z,2.37
2022-10-08T14:34:08.282Z,8.77
2022-10-08T15:10:35.242Z,3.00
2022-10-08T15:16:10.211Z,4.40
2022-10-08T15:21:44.570Z,2.73
2022-10-08T15:26:55.445Z,2.70
2022-10-08T15:31:44.215Z,2.80
2022-10-08T16:06:35.095Z,4.50
2022-10-08T16:12:13.758Z,5.10
2022-10-08T16:18:22.812Z,2.83
2022-10-08T16:24:15.729Z,4.30
2022-10-08T16:30:08.109Z,6.37
2022-10-08T16:35:12.036Z,6.93
2022-10-08T16:40:09.899Z,11.57
2022-10-08T16:45:16.278Z,8.00
2022-10-08T16:50:31.996Z,7.40
2022-10-08T16:55:43.365Z,12.97
2022-10-08T17:00:26.868Z,11.87
2022-10-08T17:05:14.092Z,8.03
2022-10-08T17:10:23.616Z,7.67
2022-10-08T17:15:10.089Z,9.10
2022-10-08T17:19:55.808Z,4.80
2022-10-08T17:24:42.900Z,5.60
2022-10-08T17:29:30.428Z,4.93
2022-10-08T17:34:35.569Z,5.43
2022-10-08T17:40:07.937Z,4.30
2022-10-08T17:45:00.206Z,6.10
2022-10-08T17:50:24.850Z,6.93
2022-10-08T17:56:13.928Z,5.73
2022-10-08T18:01:20.043Z,4.53
2022-10-08T18:06:04.917Z,4.50
2022-10-08T18:11:09.161Z,6.10
2022-10-08T18:16:16.636Z,5.90
2022-10-08T18:28:10.383Z,6.87
2022-10-08T18:32:59.910Z,6.53
2022-10-08T18:39:11.959Z,3.80
2022-10-08T18:50:55.749Z,4.07
2022-10-08T18:56:26.119Z,4.23
2022-10-08T19:01:49.087Z,4.80
2022-10-08T19:07:27.818Z,6.03
2022-10-08T19:12:53.095Z,3.03
2022-10-08T19:30:41.706Z,3.73
2022-10-08T19:42:05.896Z,3.57
2022-10-08T19:53:03.519Z,2.93
2022-10-08T19:58:08.718Z,1.83
2022-10-08T20:02:55.253Z,3.63
2022-10-08T20:08:05.878Z,5.83
2022-10-08T20:13:06.354Z,3.90
2022-10-08T20:23:43.142Z,2.40
2022-10-08T20:28:38.086Z,3.33
2022-10-08T20:34:21.303Z,2.47
2022-10-08T20:39:16.314Z,5.13
2022-10-08T20:44:05.100Z,8.07
2022-10-08T20:48:52.117Z,5.60
2022-10-08T20:53:37.820Z,2.97
2022-10-08T20:59:23.449Z,7.13
2022-10-08T21:04:52.542Z,2.67
2022-10-08T21:10:40.594Z,3.40
2022-10-08T21:15:42.890Z,3.37
2022-10-08T21:20:53.666Z,3.47
2022-10-08T21:25:38.688Z,4.93
2022-10-08T21:36:48.172Z,3.50
2022-10-08T21:42:13.456Z,5.50
2022-10-08T21:47:01.035Z,5.10
2022-10-08T21:51:47.915Z,4.10
2022-10-08T21:57:40.178Z,5.63
2022-10-08T22:08:15.764Z,5.03
2022-10-08T22:13:06.448Z,4.77
2022-10-08T22:17:51.009Z,3.57
2022-10-08T22:22:43.732Z,4.40
2022-10-08T22:27:29.689Z,4.50
2022-10-08T22:32:35.743Z,4.47
2022-10-08T22:37:36.725Z,4.03
2022-10-08T22:42:25.313Z,5.27
2022-10-08T22:47:11.914Z,2.57
2022-10-08T22:52:00.219Z,6.33
2022-10-08T22:56:46.668Z,5.37
2022-10-08T23:01:36.629Z,4.30
2022-10-08T23:06:25.677Z,4.60
2022-10-08T23:11:16.732Z,4.97
2022-10-08T23:16:02.856Z,4.67
2022-10-08T23:20:46.381Z,5.37
2022-10-08T23:25:36.054Z,5.30
2022-10-08T23:30:42.570Z,4.87
2022-10-08T23:35:26.762Z,4.63
2022-10-08T23:40:16.638Z,5.33
2022-10-08T23:45:04.666Z,5.77
2022-10-08T23:49:54.655Z,5.60
